Time;durP1;ratioP1;P1;durP2;ratioP2;P2;SDS_P1;SDS_P2;PMS_P1;PMS_P2;Temp;Humidity;BMP_temperature;BMP_pressure;BME280_temperature;BME280_humidity;BME280_pressure;Samples;Min_cycle;Max_cycle;Signal;HPM_P1;HPM_P2
2022/03/14 00:00:35;;;;;;;14.48;9.45;;;9.00;99.90;;;;;;5046956;28;20502;-62
2022/03/14 00:03:02;;;;;;;12.23;8.48;;;8.90;99.90;;;;;;5035892;28;20503;-62
2022/03/14 00:05:28;;;;;;;13.82;8.57;;;9.00;99.90;;;;;;5028746;28;20041;-61
2022/03/14 00:07:53;;;;;;;13.57;8.25;;;8.90;99.90;;;;;;5034066;28;20071;-62
2022/03/14 00:10:19;;;;;;;11.68;7.78;;;8.90;99.90;;;;;;5038797;28;20446;-61
2022/03/14 00:12:48;;;;;;;12.68;7.68;;;8.90;99.90;;;;;;5047455;28;20470;-62
2022/03/14 00:15:16;;;;;;;10.82;6.88;;;8.90;99.90;;;;;;5043898;28;20431;-61
2022/03/14 00:17:45;;;;;;;10.02;6.75;;;9.00;99.90;;;;;;5036608;28;20053;-61
2022/03/14 00:20:13;;;;;;;9.18;6.30;;;9.20;99.90;;;;;;5047988;28;20088;-62
2022/03/14 00:22:40;;;;;;;11.85;7.13;;;9.30;99.90;;;;;;5047511;28;20036;-61
2022/03/14 00:25:06;;;;;;;8.63;6.22;;;9.30;99.90;;;;;;5039204;28;20064;-61
2022/03/14 00:27:32;;;;;;;8.73;6.20;;;9.40;99.90;;;;;;5039601;28;20029;-62
2022/03/14 00:29:57;;;;;;;9.77;6.50;;;9.50;99.90;;;;;;5044628;28;20037;-62
2022/03/14 00:32:24;;;;;;;11.02;6.72;;;9.50;99.90;;;;;;5042318;28;20084;-62
2022/03/14 00:34:49;;;;;;;8.40;5.70;;;9.60;99.90;;;;;;5036829;28;20400;-62
2022/03/14 00:37:15;;;;;;;10.35;5.82;;;9.60;99.90;;;;;;5047015;28;20155;-62
2022/03/14 00:39:41;;;;;;;9.55;5.93;;;9.60;99.90;;;;;;5036024;28;20084;-62
2022/03/14 00:42:07;;;;;;;9.75;6.20;;;9.60;99.90;;;;;;5038960;28;20574;-62
2022/03/14 00:44:33;;;;;;;10.43;6.47;;;9.60;99.90;;;;;;5043059;28;20041;-62
2022/03/14 00:46:58;;;;;;;9.82;6.72;;;9.60;99.90;;;;;;5036803;28;20083;-62
2022/03/14 00:49:24;;;;;;;9.57;6.90;;;9.60;99.90;;;;;;5035067;28;20033;-62
2022/03/14 00:51:49;;;;;;;8.93;6.05;;;9.60;99.90;;;;;;5043479;28;20037;-62
2022/03/14 00:54:15;;;;;;;9.77;6.18;;;9.60;99.90;;;;;;5026860;28;20119;-62
2022/03/14 00:56:40;;;;;;;8.13;6.03;;;9.60;99.90;;;;;;5034400;28;20072;-62
2022/03/14 00:59:06;;;;;;;9.05;6.20;;;9.60;99.90;;;;;;5042968;28;20038;-62
2022/03/14 01:01:32;;;;;;;8.15;5.82;;;9.60;99.90;;;;;;5043091;28;20037;-62
2022/03/14 01:03:58;;;;;;;7.60;5.80;;;9.60;99.90;;;;;;5039716;28;20076;-61
2022/03/14 01:06:24;;;;;;;8.23;5.78;;;9.60;99.90;;;;;;5043551;28;20041;-62
2022/03/14 01:08:50;;;;;;;8.95;6.10;;;9.60;99.90;;;;;;5038107;28;20044;-62
2022/03/14 01:11:15;;;;;;;8.52;5.85;;;9.70;99.90;;;;;;5050209;28;20525;-62
2022/03/14 01:13:42;;;;;;;7.78;5.47;;;9.70;99.90;;;;;;5045393;28;20534;-62
2022/03/14 01:16:07;;;;;;;8.02;5.70;;;9.70;99.90;;;;;;5035805;28;20029;-62
2022/03/14 01:18:33;;;;;;;7.35;5.50;;;9.70;99.90;;;;;;5042090;28;20120;-62
2022/03/14 01:20:59;;;;;;;7.93;5.60;;;9.80;99.90;;;;;;5043112;28;20033;-62
2022/03/14 01:23:24;;;;;;;7.10;5.25;;;9.80;99.90;;;;;;5049555;28;20037;-62
2022/03/14 01:25:51;;;;;;;7.55;5.63;;;9.80;99.90;;;;;;5041772;28;20063;-62
2022/03/14 01:28:17;;;;;;;6.40;4.88;;;9.80;99.90;;;;;;5049004;28;20045;-62
2022/03/14 01:30:44;;;;;;;8.23;5.18;;;9.80;99.90;;;;;;5045777;28;20047;-62
2022/03/14 01:33:11;;;;;;;8.52;5.47;;;9.80;99.90;;;;;;5045126;28;20033;-62
2022/03/14 01:35:37;;;;;;;6.25;4.60;;;9.80;99.90;;;;;;5046287;28;20037;-62
2022/03/14 01:38:03;;;;;;;6.85;5.30;;;9.80;99.90;;;;;;5041421;28;20103;-62
2022/03/14 01:40:29;;;;;;;8.48;5.40;;;9.80;99.90;;;;;;5049448;28;20208;-61
2022/03/14 01:42:54;;;;;;;7.68;5.38;;;9.80;99.90;;;;;;5041457;28;20036;-62
2022/03/14 01:45:22;;;;;;;7.95;5.15;;;9.80;99.90;;;;;;5050027;28;20037;-61
2022/03/14 01:47:49;;;;;;;7.10;4.93;;;9.80;99.90;;;;;;5040108;28;20041;-62
2022/03/14 01:50:16;;;;;;;9.05;5.53;;;9.70;99.90;;;;;;5039469;28;20223;-62
2022/03/14 01:52:43;;;;;;;8.85;4.90;;;9.80;99.90;;;;;;5047102;28;20398;-62
2022/03/14 01:55:09;;;;;;;8.55;4.95;;;9.80;99.90;;;;;;5037511;28;20036;-62
2022/03/14 01:57:35;;;;;;;10.02;5.07;;;9.80;99.90;;;;;;5041282;28;20036;-62
2022/03/14 02:00:02;;;;;;;7.10;5.05;;;9.80;99.90;;;;;;5029830;28;20033;-62
2022/03/14 02:02:28;;;;;;;6.70;4.72;;;9.80;99.90;;;;;;5030347;28;20464;-62
2022/03/14 02:04:54;;;;;;;6.13;4.95;;;9.80;99.90;;;;;;5039324;28;20583;-62
2022/03/14 02:07:20;;;;;;;7.80;5.70;;;9.80;99.90;;;;;;5043883;28;20441;-62
2022/03/14 02:09:46;;;;;;;7.22;5.38;;;9.80;99.90;;;;;;5046516;28;20044;-61
2022/03/14 02:12:12;;;;;;;9.45;5.82;;;9.70;99.90;;;;;;5034071;28;20025;-62
2022/03/14 02:14:41;;;;;;;6.70;5.25;;;9.70;99.90;;;;;;5037422;28;20037;-62
2022/03/14 02:17:12;;;;;;;8.00;5.35;;;9.70;99.90;;;;;;5049290;28;20116;-62
2022/03/14 02:19:38;;;;;;;7.00;5.15;;;9.70;99.90;;;;;;5045962;28;20498;-62
2022/03/14 02:22:05;;;;;;;6.43;5.00;;;9.70;99.90;;;;;;5041535;28;20120;-62
2022/03/14 02:24:31;;;;;;;7.40;5.57;;;9.70;99.90;;;;;;5040057;28;20041;-61
2022/03/14 02:26:57;;;;;;;6.75;5.07;;;9.70;99.90;;;;;;5047967;28;20103;-62
2022/03/14 02:29:24;;;;;;;7.53;5.40;;;9.70;99.90;;;;;;5041806;28;20694;-61
2022/03/14 02:31:53;;;;;;;7.65;5.57;;;9.70;99.90;;;;;;5038746;28;20084;-62
2022/03/14 02:34:19;;;;;;;6.93;5.15;;;9.70;99.90;;;;;;5049021;28;20045;-61
2022/03/14 02:36:45;;;;;;;6.88;5.05;;;9.70;99.90;;;;;;5038731;28;20036;-61
2022/03/14 02:39:11;;;;;;;7.55;5.18;;;9.70;99.90;;;;;;5036789;28;20041;-61
2022/03/14 02:41:37;;;;;;;7.50;5.05;;;9.80;99.90;;;;;;5045120;28;20056;-61
2022/03/14 02:44:08;;;;;;;7.05;5.03;;;9.80;99.90;;;;;;5045092;28;20045;-61
2022/03/14 02:46:34;;;;;;;;;;;9.80;99.90;;;;;;5042899;28;20063;-61
2022/03/14 02:49:01;;;;;;;5.43;4.10;;;9.90;99.90;;;;;;5040017;28;20406;-62
2022/03/14 02:51:26;;;;;;;6.65;4.43;;;9.90;99.90;;;;;;5048241;28;20065;-61
2022/03/14 02:53:53;;;;;;;7.28;4.55;;;9.90;99.90;;;;;;5040375;28;20502;-61
2022/03/14 02:56:20;;;;;;;6.63;4.50;;;9.90;99.90;;;;;;5047590;28;20104;-61
2022/03/14 02:58:49;;;;;;;9.48;4.57;;;10.00;99.90;;;;;;5029815;28;20064;-61
2022/03/14 03:01:15;;;;;;;5.65;4.43;;;10.00;99.90;;;;;;5034044;28;20524;-61
2022/03/14 03:03:41;;;;;;;7.25;4.45;;;10.00;99.90;;;;;;5046493;28;20044;-61
2022/03/14 03:06:07;;;;;;;9.40;4.80;;;10.00;99.90;;;;;;5040241;28;20044;-61
2022/03/14 03:08:34;;;;;;;6.05;4.43;;;10.00;99.90;;;;;;5039856;28;20034;-61
2022/03/14 03:11:00;;;;;;;6.25;4.20;;;9.90;99.90;;;;;;5043388;28;20518;-61
2022/03/14 03:13:27;;;;;;;6.30;4.22;;;9.90;99.90;;;;;;5042711;28;20041;-61
2022/03/14 03:15:53;;;;;;;5.47;4.15;;;9.90;99.90;;;;;;5047739;28;20060;-61
2022/03/14 03:18:19;;;;;;;6.00;4.45;;;9.90;99.90;;;;;;5031563;28;20491;-61
2022/03/14 03:20:45;;;;;;;9.45;4.80;;;9.90;99.90;;;;;;5035904;28;20084;-61
2022/03/14 03:23:11;;;;;;;7.43;4.68;;;9.80;99.90;;;;;;5040404;28;20442;-61
2022/03/14 03:25:36;;;;;;;6.95;5.10;;;9.80;99.90;;;;;;5039944;28;20049;-62
2022/03/14 03:28:02;;;;;;;7.03;4.88;;;9.80;99.90;;;;;;5040885;28;20029;-61
2022/03/14 03:30:27;;;;;;;5.72;4.35;;;9.80;99.90;;;;;;5038953;28;20037;-62
2022/03/14 03:32:53;;;;;;;6.95;5.00;;;9.80;99.90;;;;;;5046878;28;20514;-61
2022/03/14 03:35:19;;;;;;;7.13;4.95;;;9.80;99.90;;;;;;5033162;28;20033;-61
2022/03/14 03:37:44;;;;;;;9.57;4.97;;;9.80;99.90;;;;;;5038966;28;20482;-61
2022/03/14 03:40:10;;;;;;;7.55;5.05;;;9.80;99.90;;;;;;5047389;28;20075;-61
2022/03/14 03:42:36;;;;;;;7.00;5.05;;;9.80;99.90;;;;;;5033166;28;20416;-61
2022/03/14 03:45:03;;;;;;;6.45;4.85;;;9.80;99.90;;;;;;5039831;28;20037;-61
2022/03/14 03:47:28;;;;;;;7.15;5.22;;;9.70;99.90;;;;;;5042693;28;20582;-61
2022/03/14 03:49:54;;;;;;;8.20;4.88;;;9.70;99.90;;;;;;5045953;28;20533;-60
2022/03/14 03:52:19;;;;;;;6.90;5.22;;;9.60;99.90;;;;;;5034160;28;20029;-62
2022/03/14 03:54:45;;;;;;;8.25;4.97;;;9.60;99.90;;;;;;5036077;28;20063;-61
2022/03/14 03:57:10;;;;;;;6.82;4.85;;;9.60;99.90;;;;;;5043109;28;20068;-61
2022/03/14 03:59:36;;;;;;;6.40;4.85;;;9.60;99.90;;;;;;5040963;28;20034;-61
2022/03/14 04:02:04;;;;;;;6.88;5.05;;;9.60;99.90;;;;;;5042946;28;20469;-61
2022/03/14 04:04:30;;;;;;;7.93;4.90;;;9.60;99.90;;;;;;5038812;28;20383;-61
2022/03/14 04:06:56;;;;;;;6.93;5.28;;;9.60;99.90;;;;;;5031373;28;20044;-61
2022/03/14 04:09:22;;;;;;;6.45;5.10;;;9.60;99.90;;;;;;5028226;28;20026;-61
2022/03/14 04:11:47;;;;;;;7.35;5.47;;;9.60;99.90;;;;;;5034892;28;20091;-61
2022/03/14 04:14:14;;;;;;;8.32;5.03;;;9.60;99.90;;;;;;5047374;28;20090;-61
2022/03/14 04:16:41;;;;;;;8.45;5.60;;;9.60;99.90;;;;;;5044447;28;20775;-61
2022/03/14 04:19:07;;;;;;;7.70;5.53;;;9.60;99.90;;;;;;5043235;28;20131;-61
2022/03/14 04:21:36;;;;;;;6.65;4.93;;;9.60;99.90;;;;;;5039381;28;20053;-61
2022/03/14 04:24:04;;;;;;;7.28;5.22;;;9.60;99.90;;;;;;5039288;28;20047;-61
2022/03/14 04:26:30;;;;;;;6.93;5.15;;;9.60;99.90;;;;;;5044319;28;20037;-62
2022/03/14 04:28:56;;;;;;;7.78;5.53;;;9.60;99.90;;;;;;5033424;28;20044;-62
2022/03/14 04:31:22;;;;;;;6.88;5.05;;;9.70;99.90;;;;;;5028050;28;20044;-61
2022/03/14 04:33:47;;;;;;;7.28;5.15;;;9.70;99.90;;;;;;5033743;28;20399;-61
2022/03/14 04:36:14;;;;;;;7.10;5.07;;;9.70;99.90;;;;;;5045339;28;20037;-61
2022/03/14 04:38:40;;;;;;;7.53;5.15;;;9.70;99.90;;;;;;5035665;28;20037;-61
2022/03/14 04:41:05;;;;;;;6.50;5.00;;;9.70;99.90;;;;;;5043140;28;20057;-61
2022/03/14 04:43:31;;;;;;;6.95;5.03;;;9.80;99.90;;;;;;5047581;28;20041;-61
2022/03/14 04:45:57;;;;;;;7.43;5.18;;;9.80;99.90;;;;;;5042329;28;20461;-62
2022/03/14 04:48:23;;;;;;;7.43;5.28;;;9.80;99.90;;;;;;5051029;28;20029;-61
2022/03/14 04:50:50;;;;;;;6.82;4.90;;;9.80;99.90;;;;;;5040664;28;20086;-62
2022/03/14 04:53:17;;;;;;;7.82;5.20;;;9.80;99.90;;;;;;5038753;28;20484;-61
2022/03/14 04:55:43;;;;;;;6.90;5.03;;;9.80;99.90;;;;;;5045756;28;20056;-61
2022/03/14 04:58:14;;;;;;;7.03;5.32;;;9.70;99.90;;;;;;5030180;28;20472;-61
2022/03/14 05:00:40;;;;;;;6.63;4.95;;;9.70;99.90;;;;;;5039796;28;20090;-62
2022/03/14 05:03:08;;;;;;;7.40;5.50;;;9.70;99.90;;;;;;5030303;28;20459;-61
2022/03/14 05:05:34;;;;;;;7.25;5.15;;;9.70;99.90;;;;;;5028434;28;20089;-61
2022/03/14 05:08:00;;;;;;;7.00;4.97;;;9.70;99.90;;;;;;5034048;28;20037;-61
2022/03/14 05:10:25;;;;;;;7.22;5.28;;;9.80;99.90;;;;;;5042306;28;20041;-61
2022/03/14 05:12:51;;;;;;;6.75;5.20;;;9.80;99.90;;;;;;5050742;28;20550;-61
2022/03/14 05:15:17;;;;;;;6.47;4.90;;;9.80;99.90;;;;;;5038934;28;20252;-61
2022/03/14 05:17:43;;;;;;;7.78;5.50;;;9.80;99.90;;;;;;5040131;28;20034;-61
2022/03/14 05:20:09;;;;;;;7.68;5.35;;;9.80;99.90;;;;;;5050729;28;20531;-61
2022/03/14 05:22:45;;;;;;;8.23;5.15;;;9.80;99.90;;;;;;5048025;28;20068;-61
2022/03/14 05:25:11;;;;;;;8.25;5.32;;;9.80;99.90;;;;;;5049262;28;20041;-61
2022/03/14 05:27:39;;;;;;;7.47;5.40;;;9.70;99.90;;;;;;5041949;28;20080;-62
2022/03/14 05:30:08;;;;;;;7.70;5.20;;;9.70;99.90;;;;;;5047984;28;20432;-62
2022/03/14 05:32:34;;;;;;;7.75;5.53;;;9.70;99.90;;;;;;5038384;28;20128;-62
2022/03/14 05:34:59;;;;;;;7.65;5.40;;;9.60;99.90;;;;;;5041263;28;20036;-61
2022/03/14 05:37:25;;;;;;;8.30;5.50;;;9.60;99.90;;;;;;5050304;28;20040;-61
2022/03/14 05:39:51;;;;;;;8.07;5.40;;;9.60;99.90;;;;;;5046532;28;20029;-61
2022/03/14 05:42:16;;;;;;;7.03;5.40;;;9.60;99.90;;;;;;5043510;28;20036;-61
2022/03/14 05:44:45;;;;;;;7.57;6.05;;;9.60;99.90;;;;;;5038346;28;20037;-61
2022/03/14 05:47:11;;;;;;;7.80;5.50;;;9.60;99.90;;;;;;5035604;28;20091;-61
2022/03/14 05:49:37;;;;;;;8.68;6.05;;;9.50;99.90;;;;;;5030762;28;20042;-61
2022/03/14 05:52:03;;;;;;;7.30;5.55;;;9.50;99.90;;;;;;5042886;28;20395;-61
2022/03/14 05:54:28;;;;;;;9.93;5.97;;;9.50;99.90;;;;;;5035658;22;20050;-61
2022/03/14 05:56:54;;;;;;;7.80;5.75;;;9.50;99.90;;;;;;5021253;28;20056;-61
2022/03/14 05:59:21;;;;;;;8.15;5.72;;;9.50;99.90;;;;;;5033086;28;20037;-62
2022/03/14 06:01:49;;;;;;;10.55;6.22;;;9.50;99.90;;;;;;5023338;28;20037;-62
2022/03/14 06:04:15;;;;;;;8.32;6.10;;;9.40;99.90;;;;;;5014019;28;20053;-61
2022/03/14 06:06:41;;;;;;;8.45;6.22;;;9.40;99.90;;;;;;5018090;28;20052;-61
2022/03/14 06:09:07;;;;;;;9.70;6.38;;;9.40;99.90;;;;;;5026397;28;20484;-61
2022/03/14 06:11:32;;;;;;;9.85;6.30;;;9.40;99.90;;;;;;5017778;28;20125;-61
2022/03/14 06:13:58;;;;;;;10.23;6.45;;;9.30;99.90;;;;;;4997074;28;20096;-61
2022/03/14 06:16:25;;;;;;;10.85;6.32;;;9.30;99.90;;;;;;5015861;28;20042;-62
2022/03/14 06:18:51;;;;;;;9.48;6.65;;;9.30;99.90;;;;;;5020968;28;20045;-61
2022/03/14 06:21:16;;;;;;;10.80;6.70;;;9.30;99.90;;;;;;5027352;28;20446;-61
2022/03/14 06:23:42;;;;;;;11.32;7.03;;;9.30;99.90;;;;;;5037253;28;20041;-61
2022/03/14 06:26:08;;;;;;;9.70;6.93;;;9.30;99.90;;;;;;5023991;28;20033;-61
2022/03/14 06:28:33;;;;;;;11.10;7.07;;;9.30;99.90;;;;;;5029189;28;20047;-61
2022/03/14 06:30:59;;;;;;;9.30;6.57;;;9.30;99.90;;;;;;5038199;28;20052;-61
2022/03/14 06:33:24;;;;;;;11.20;7.00;;;9.30;99.90;;;;;;5031031;28;20045;-61
2022/03/14 06:35:50;;;;;;;9.38;7.10;;;9.30;99.90;;;;;;5025686;28;20050;-61
2022/03/14 06:38:16;;;;;;;10.85;6.95;;;9.30;99.90;;;;;;5017897;28;20605;-61
2022/03/14 06:40:42;;;;;;;9.82;6.95;;;9.30;99.90;;;;;;5028039;28;20049;-61
2022/03/14 06:43:10;;;;;;;10.70;6.88;;;9.30;99.90;;;;;;5017608;28;20184;-61
2022/03/14 06:45:38;;;;;;;14.15;7.40;;;9.30;99.90;;;;;;5011104;28;20052;-61
2022/03/14 06:48:05;;;;;;;10.68;7.00;;;9.30;99.90;;;;;;5034314;28;20041;-62
2022/03/14 06:50:31;;;;;;;11.98;7.55;;;9.30;99.90;;;;;;5025894;28;20669;-61
2022/03/14 06:52:58;;;;;;;10.80;7.50;;;9.30;99.90;;;;;;5021123;28;20038;-61
2022/03/14 06:55:24;;;;;;;11.23;7.63;;;9.30;99.90;;;;;;5000820;28;20103;-61
2022/03/14 06:57:50;;;;;;;10.98;7.50;;;9.30;99.90;;;;;;5018938;28;20080;-61
2022/03/14 07:00:17;;;;;;;9.75;7.20;;;9.30;99.90;;;;;;5035082;28;20049;-61
2022/03/14 07:02:42;;;;;;;10.13;7.60;;;9.30;99.90;;;;;;5041866;28;20044;-61
2022/03/14 07:05:13;;;;;;;11.30;8.00;;;9.40;99.90;;;;;;5041642;28;20703;-61
2022/03/14 07:07:40;;;;;;;13.15;8.02;;;9.40;99.90;;;;;;5018806;28;20081;-61
2022/03/14 07:10:06;;;;;;;14.68;8.40;;;9.40;99.90;;;;;;5034777;28;20032;-61
2022/03/14 07:12:44;;;;;;;10.95;7.35;;;9.40;99.90;;;;;;5022233;28;20045;-61
2022/03/14 07:15:09;;;;;;;15.35;7.53;;;9.40;99.90;;;;;;5028726;28;20037;-61
2022/03/14 07:17:35;;;;;;;15.30;8.27;;;9.40;99.90;;;;;;5027882;28;20380;-61
2022/03/14 07:20:01;;;;;;;14.13;8.07;;;9.50;99.90;;;;;;5025332;28;20409;-61
2022/03/14 07:22:28;;;;;;;11.40;8.07;;;9.50;99.90;;;;;;5023158;28;20535;-61
2022/03/14 07:24:53;;;;;;;13.90;7.80;;;9.60;99.90;;;;;;5036664;28;20120;-61
2022/03/14 07:27:19;;;;;;;12.10;8.20;;;9.60;99.90;;;;;;5011583;28;20116;-61
2022/03/14 07:29:44;;;;;;;12.60;7.82;;;9.60;99.90;;;;;;5011704;28;20049;-61
2022/03/14 07:32:10;;;;;;;13.88;8.27;;;9.60;99.90;;;;;;5040256;28;20033;-61
2022/03/14 07:34:36;;;;;;;12.10;8.25;;;9.60;99.90;;;;;;5013666;28;20045;-61
2022/03/14 07:37:02;;;;;;;11.10;8.07;;;9.60;99.90;;;;;;5012330;28;20113;-61
2022/03/14 07:39:29;;;;;;;13.95;8.25;;;9.60;99.90;;;;;;5031682;28;20460;-61
2022/03/14 07:41:55;;;;;;;12.05;8.27;;;9.70;99.90;;;;;;5034936;28;20493;-61
2022/03/14 07:44:21;;;;;;;11.82;8.73;;;9.60;99.90;;;;;;5018017;28;20033;-61
2022/03/14 07:46:47;;;;;;;12.70;8.60;;;9.60;99.90;;;;;;5006921;28;20041;-61
2022/03/14 07:49:14;;;;;;;13.48;8.52;;;9.60;99.90;;;;;;5022546;28;20034;-61
2022/03/14 07:51:40;;;;;;;13.10;9.07;;;9.60;99.90;;;;;;5024682;28;20042;-61
2022/03/14 07:54:06;;;;;;;13.93;8.40;;;9.60;99.90;;;;;;5037417;28;20592;-61
2022/03/14 07:56:32;;;;;;;21.77;9.23;;;9.60;99.90;;;;;;5002413;28;1066647;-61
2022/03/14 07:58:57;;;;;;;16.63;9.20;;;9.60;99.90;;;;;;5019600;28;20104;-61
2022/03/14 08:01:23;;;;;;;17.45;9.70;;;9.60;99.90;;;;;;5024239;28;20551;-61
2022/03/14 08:03:48;;;;;;;14.18;9.77;;;9.60;99.90;;;;;;5039034;28;20407;-61
2022/03/14 08:06:23;;;;;;;14.93;9.63;;;9.60;99.90;;;;;;5035197;28;20155;-61
2022/03/14 08:08:50;;;;;;;14.23;10.23;;;9.60;99.90;;;;;;5020541;28;20045;-61
2022/03/14 08:11:16;;;;;;;15.90;10.27;;;9.60;99.90;;;;;;5031894;28;20538;-61
2022/03/14 08:13:42;;;;;;;14.45;9.60;;;9.60;99.90;;;;;;5025508;28;20087;-61
2022/03/14 08:16:08;;;;;;;14.70;9.57;;;9.60;99.90;;;;;;5022029;28;20041;-61
2022/03/14 08:18:33;;;;;;;14.55;10.32;;;9.60;99.90;;;;;;5021433;28;20036;-61
2022/03/14 08:20:59;;;;;;;17.33;10.98;;;9.60;99.90;;;;;;5036190;28;20445;-61
2022/03/14 08:23:25;;;;;;;15.80;10.95;;;9.70;99.90;;;;;;5034660;28;20045;-61
2022/03/14 08:25:52;;;;;;;18.17;11.05;;;9.70;99.90;;;;;;5041285;28;20080;-61
2022/03/14 08:28:18;;;;;;;17.15;11.18;;;9.70;99.90;;;;;;5036759;28;20088;-61
2022/03/14 08:30:45;;;;;;;15.85;11.50;;;9.80;99.90;;;;;;5027199;28;20403;-61
2022/03/14 08:33:10;;;;;;;17.10;11.18;;;9.80;99.90;;;;;;5032566;28;20372;-61
2022/03/14 08:35:36;;;;;;;16.25;10.73;;;9.80;99.90;;;;;;5035891;28;20041;-61
2022/03/14 08:38:01;;;;;;;17.08;12.07;;;9.70;99.90;;;;;;5042680;28;20064;-61
2022/03/14 08:40:28;;;;;;;16.70;11.98;;;9.60;99.90;;;;;;5051766;28;20041;-61
2022/03/14 08:42:56;;;;;;;18.25;12.55;;;9.60;99.90;;;;;;5032699;28;20029;-61
2022/03/14 08:45:23;;;;;;;18.60;12.57;;;9.60;99.90;;;;;;5026926;28;20037;-61
2022/03/14 08:47:49;;;;;;;18.17;11.75;;;9.60;99.90;;;;;;5035726;28;20495;-61
2022/03/14 08:50:16;;;;;;;18.52;12.23;;;9.50;99.90;;;;;;5023522;28;20048;-61
2022/03/14 08:52:42;;;;;;;21.40;11.98;;;9.50;99.90;;;;;;5028107;28;20037;-61
2022/03/14 08:55:07;;;;;;;25.63;13.65;;;9.50;99.90;;;;;;5031433;28;20069;-61
2022/03/14 08:57:33;;;;;;;25.30;15.20;;;9.50;99.90;;;;;;5023449;28;20554;-61
2022/03/14 08:59:59;;;;;;;26.55;15.38;;;9.40;99.90;;;;;;5014919;28;20025;-61
2022/03/14 09:02:24;;;;;;;24.15;15.15;;;9.40;99.90;;;;;;5025021;28;20038;-61
2022/03/14 09:04:50;;;;;;;23.88;15.18;;;9.30;99.90;;;;;;5037433;28;20326;-61
2022/03/14 09:07:26;;;;;;;27.48;16.83;;;9.30;99.90;;;;;;5007282;28;20061;-61
2022/03/14 09:09:53;;;;;;;26.73;15.48;;;9.30;99.90;;;;;;5021321;28;20038;-61
2022/03/14 09:12:20;;;;;;;26.08;15.60;;;9.30;99.90;;;;;;5039293;28;20029;-61
2022/03/14 09:14:46;;;;;;;24.73;15.23;;;9.30;99.90;;;;;;5017136;28;20034;-61
2022/03/14 09:17:12;;;;;;;26.65;15.55;;;9.30;99.90;;;;;;5019018;28;20036;-61
2022/03/14 09:19:38;;;;;;;27.73;15.55;;;9.30;99.90;;;;;;5017446;28;20038;-61
2022/03/14 09:22:05;;;;;;;24.25;15.57;;;9.40;99.90;;;;;;5021866;28;20400;-61
2022/03/14 09:24:32;;;;;;;24.27;14.90;;;9.40;99.90;;;;;;5022935;28;20117;-61
2022/03/14 09:26:59;;;;;;;25.10;15.38;;;9.40;99.90;;;;;;5027936;28;20155;-61
2022/03/14 09:29:26;;;;;;;22.42;14.23;;;9.50;99.90;;;;;;5031269;28;20113;-61
2022/03/14 09:31:52;;;;;;;22.38;13.73;;;9.50;99.90;;;;;;5030090;28;20087;-61
2022/03/14 09:34:18;;;;;;;22.63;14.27;;;9.50;99.90;;;;;;5027544;28;20041;-61
2022/03/14 09:36:45;;;;;;;24.25;13.00;;;9.50;99.90;;;;;;5026671;28;20107;-61
2022/03/14 09:39:13;;;;;;;21.23;13.32;;;9.50;99.90;;;;;;5049071;28;20538;-61
2022/03/14 09:41:41;;;;;;;24.70;13.15;;;9.50;99.90;;;;;;5030012;28;20573;-61
2022/03/14 09:44:09;;;;;;;18.85;12.05;;;9.50;99.90;;;;;;5040075;28;20067;-61
2022/03/14 09:46:36;;;;;;;21.17;11.80;;;9.60;99.90;;;;;;5045657;28;20044;-61
2022/03/14 09:49:02;;;;;;;20.05;12.15;;;9.60;99.90;;;;;;5049655;28;20543;-61
2022/03/14 09:51:28;;;;;;;20.90;12.82;;;9.60;99.90;;;;;;5027648;28;20518;-61
2022/03/14 09:53:54;;;;;;;23.58;14.32;;;9.60;99.90;;;;;;5038747;28;20038;-61
2022/03/14 09:56:20;;;;;;;28.00;15.27;;;9.60;99.90;;;;;;5042828;28;20118;-61
2022/03/14 09:58:46;;;;;;;26.25;13.75;;;9.60;99.90;;;;;;4996315;28;20041;-61
2022/03/14 10:01:13;;;;;;;25.63;14.15;;;9.60;99.90;;;;;;5031138;28;20084;-61
2022/03/14 10:03:39;;;;;;;23.88;14.07;;;9.60;99.90;;;;;;5043977;28;20056;-61
2022/03/14 10:06:04;;;;;;;24.83;13.68;;;9.60;99.90;;;;;;5018092;28;20042;-61
2022/03/14 10:08:31;;;;;;;23.70;12.75;;;9.60;99.90;;;;;;5039579;28;20045;-61
2022/03/14 10:10:57;;;;;;;24.45;13.27;;;9.60;99.90;;;;;;5024680;28;20034;-61
2022/03/14 10:13:24;;;;;;;25.67;13.68;;;9.60;99.90;;;;;;5008195;28;20040;-61
2022/03/14 10:15:50;;;;;;;19.83;11.32;;;9.60;99.90;;;;;;5037599;28;20037;-61
2022/03/14 10:18:18;;;;;;;23.05;11.60;;;9.60;99.90;;;;;;5041053;28;20044;-61
2022/03/14 10:20:56;;;;;;;20.58;11.13;;;9.60;99.90;;;;;;5049335;28;20080;-61
2022/03/14 10:23:33;;;;;;;20.17;10.88;;;9.70;99.90;;;;;;5033221;28;20401;-61
2022/03/14 10:26:00;;;;;;;18.45;9.27;;;9.80;99.90;;;;;;5043037;28;20044;-61
2022/03/14 10:28:30;;;;;;;17.65;9.90;;;9.80;99.90;;;;;;5036814;28;20037;-61
2022/03/14 10:31:00;;;;;;;18.52;8.98;;;9.90;99.90;;;;;;5028977;28;20029;-61
2022/03/14 10:33:26;;;;;;;22.60;9.27;;;9.90;99.90;;;;;;5034591;28;20033;-61
2022/03/14 10:35:55;;;;;;;18.08;9.02;;;9.90;99.90;;;;;;5026469;28;20088;-61
2022/03/14 10:38:21;;;;;;;20.20;8.55;;;9.90;99.90;;;;;;5039864;28;20060;-61
2022/03/14 10:40:47;;;;;;;18.90;8.52;;;9.90;99.90;;;;;;5047153;28;20120;-61
2022/03/14 10:43:28;;;;;;;14.32;7.65;;;9.90;99.90;;;;;;5048355;28;20317;-61
2022/03/14 10:45:55;;;;;;;16.50;6.37;;;10.00;99.90;;;;;;5035416;28;20073;-61
2022/03/14 10:48:35;;;;;;;16.52;6.75;;;10.00;99.90;;;;;;5017660;28;20314;-61
2022/03/14 10:51:03;;;;;;;13.10;7.05;;;10.00;99.90;;;;;;5018757;28;20040;-61
2022/03/14 10:53:29;;;;;;;15.77;6.57;;;10.00;99.90;;;;;;5021434;28;20037;-61
2022/03/14 10:55:59;;;;;;;14.02;5.97;;;10.10;99.90;;;;;;5036710;28;20055;-61
2022/03/14 10:58:33;;;;;;;13.88;5.30;;;10.10;99.90;;;;;;5025624;28;20048;-61
2022/03/14 11:01:05;;;;;;;12.52;5.10;;;10.10;99.90;;;;;;5036341;28;20558;-61
2022/03/14 11:03:33;;;;;;;14.68;5.65;;;10.20;99.90;;;;;;5022334;28;20030;-61
2022/03/14 11:06:09;;;;;;;13.82;5.30;;;10.30;99.90;;;;;;5031289;28;20079;-61
2022/03/14 11:08:38;;;;;;;13.73;5.28;;;10.40;99.90;;;;;;5039738;28;20127;-61
2022/03/14 11:11:05;;;;;;;14.13;5.05;;;10.50;99.90;;;;;;5048623;28;20040;-61
2022/03/14 11:13:36;;;;;;;12.27;4.97;;;10.50;99.90;;;;;;5032935;28;20038;-61
2022/03/14 11:16:02;;;;;;;17.57;5.30;;;10.60;99.90;;;;;;5026160;28;20388;-61
2022/03/14 11:18:29;;;;;;;18.35;4.88;;;10.70;99.90;;;;;;5030699;28;20043;-62
2022/03/14 11:20:55;;;;;;;13.98;4.72;;;10.70;99.90;;;;;;5031437;28;20045;-61
2022/03/14 11:23:22;;;;;;;11.20;5.20;;;10.80;99.90;;;;;;5038027;28;20055;-62
2022/03/14 11:25:48;;;;;;;11.98;5.30;;;10.90;99.90;;;;;;5039396;28;20060;-61
2022/03/14 11:28:17;;;;;;;13.23;4.75;;;10.90;99.90;;;;;;5027148;28;20033;-61
2022/03/14 11:30:48;;;;;;;15.05;5.93;;;10.90;99.90;;;;;;5037046;28;20033;-62
2022/03/14 11:33:15;;;;;;;13.40;6.22;;;10.90;99.90;;;;;;5047524;28;20041;-61
2022/03/14 11:35:42;;;;;;;11.40;6.43;;;10.90;99.90;;;;;;5046984;28;20033;-62
2022/03/14 11:38:10;;;;;;;12.98;6.45;;;10.90;99.90;;;;;;5024268;28;20065;-61
2022/03/14 11:40:37;;;;;;;16.55;6.70;;;10.90;99.90;;;;;;5037712;28;20090;-62
2022/03/14 11:43:02;;;;;;;13.65;7.72;;;10.90;99.90;;;;;;5039892;28;20045;-61
2022/03/14 11:45:30;;;;;;;16.98;7.93;;;10.90;99.90;;;;;;5045431;28;20372;-61
2022/03/14 11:47:56;;;;;;;17.58;8.45;;;10.90;99.90;;;;;;5031491;28;20041;-62
2022/03/14 11:50:22;;;;;;;15.82;8.55;;;11.00;99.90;;;;;;5039199;28;20090;-61
2022/03/14 11:52:50;;;;;;;17.90;9.15;;;11.00;99.90;;;;;;5047786;28;20342;-61
2022/03/14 11:55:21;;;;;;;19.45;10.05;;;11.20;99.90;;;;;;5032820;28;20124;-62
2022/03/14 11:57:47;;;;;;;16.98;9.95;;;11.20;99.90;;;;;;5036405;28;20041;-61
2022/03/14 12:00:24;;;;;;;21.73;11.93;;;11.40;99.90;;;;;;5025231;28;20345;-61
2022/03/14 12:02:52;;;;;;;21.83;12.20;;;11.40;99.90;;;;;;5033550;28;20087;-61
2022/03/14 12:05:41;;;;;;;20.00;12.23;;;11.60;99.90;;;;;;5025999;28;20555;-61
2022/03/14 12:08:12;;;;;;;18.25;12.07;;;11.80;99.90;;;;;;5012588;28;20129;-62
2022/03/14 12:10:37;;;;;;;20.42;12.73;;;11.90;99.90;;;;;;5018889;28;20072;-61
2022/03/14 12:13:03;;;;;;;22.73;13.20;;;11.90;99.90;;;;;;5022954;28;20072;-62
2022/03/14 12:15:41;;;;;;;20.35;13.18;;;12.00;99.90;;;;;;5020356;28;20046;-62
2022/03/14 12:18:28;;;;;;;24.70;14.77;;;12.10;99.90;;;;;;5017136;28;20157;-61
2022/03/14 12:21:04;;;;;;;19.95;13.75;;;12.10;99.90;;;;;;5013760;28;20038;-62
2022/03/14 12:23:34;;;;;;;22.50;14.07;;;12.00;99.90;;;;;;5019519;28;20056;-62
2022/03/14 12:26:23;;;;;;;22.05;15.05;;;12.00;99.90;;;;;;5019396;28;20033;-62
2022/03/14 12:28:49;;;;;;;26.70;15.52;;;12.10;99.90;;;;;;5024604;28;20046;-62
2022/03/14 12:31:18;;;;;;;22.40;15.70;;;12.10;99.90;;;;;;5035569;28;20044;-62
2022/03/14 12:33:45;;;;;;;26.38;15.80;;;12.10;99.90;;;;;;5044620;28;20044;-62
2022/03/14 12:36:23;;;;;;;24.17;15.75;;;12.10;99.90;;;;;;5030232;28;20447;-62
2022/03/14 12:39:09;;;;;;;25.90;16.05;;;12.10;99.90;;;;;;5037926;28;20050;-61
2022/03/14 12:41:42;;;;;;;26.83;15.93;;;12.10;99.90;;;;;;5036787;28;20072;-62
2022/03/14 12:44:27;;;;;;;22.98;15.60;;;12.00;99.90;;;;;;5032072;28;20044;-61
2022/03/14 12:46:59;;;;;;;23.08;15.80;;;12.10;99.90;;;;;;5042173;28;20099;-62